Terminal Aerodrome Forecast
Issued by NWS Sterling, VA

Home | Current Version | Previous Version | Text Only | Print | Product List | Glossary On
Versions: 1 2 3 4 5 6 7 8 9 10 11 12 13 14 15 16 17 18 19 20 21 22 23
000
FTUS41 KLWX 221957 AAC
TAFMRB
TAF AMD
KMRB 221957Z 2220/2318 05004KT P6SM OVC006
     FM222100 06005KT 5SM -RA OVC008
     FM230500 07009KT 5SM -RA OVC008
     FM230600 07010G17KT 5SM RA BKN008 OVC015
     FM230800 06013G24KT 5SM RA BKN008 OVC015
     FM231200 06013G26KT 5SM RA BKN008 OVC015=

USA.gov is the U.S. government's official web portal to all federal, state and local government web resources and services.